createdAt,value
2022-08-26T00:01:10.493Z,63.85
2022-08-26T00:03:37.201Z,62.72
2022-08-26T00:06:03.763Z,61.89
2022-08-26T00:08:30.327Z,62.35
2022-08-26T00:10:56.828Z,63.31
2022-08-26T00:13:26.373Z,62.62
2022-08-26T00:15:53.582Z,61.97
2022-08-26T00:18:22.560Z,60.86
2022-08-26T00:20:49.566Z,62.12
2022-08-26T00:23:17.726Z,63.08
2022-08-26T00:25:44.231Z,63.64
2022-08-26T00:28:11.084Z,64.17
2022-08-26T00:30:38.376Z,64.63
2022-08-26T00:33:06.174Z,64.72
2022-08-26T00:35:34.758Z,64.34
2022-08-26T00:38:02.863Z,64.85
2022-08-26T00:40:34.002Z,65.20
2022-08-26T00:43:00.905Z,65.52
2022-08-26T00:45:29.485Z,65.81
2022-08-26T00:48:01.877Z,65.10
2022-08-26T00:50:34.543Z,65.96
2022-08-26T00:53:02.266Z,66.04
2022-08-26T00:55:37.942Z,65.20
2022-08-26T00:58:05.993Z,65.69
2022-08-26T01:00:33.114Z,65.68
2022-08-26T01:03:01.856Z,65.67
2022-08-26T01:05:32.045Z,65.32
2022-08-26T01:07:58.562Z,66.38
2022-08-26T01:10:28.235Z,66.80
2022-08-26T01:13:00.836Z,66.85
2022-08-26T01:15:32.936Z,66.41
2022-08-26T01:18:00.092Z,66.63
2022-08-26T01:20:53.760Z,65.96
2022-08-26T01:23:28.205Z,66.81
2022-08-26T01:25:57.428Z,65.70
2022-08-26T01:28:28.424Z,65.96
2022-08-26T01:30:55.932Z,64.38
2022-08-26T01:33:40.025Z,64.30
2022-08-26T01:36:09.542Z,64.59
2022-08-26T01:38:36.059Z,65.96
2022-08-26T01:41:02.837Z,66.85
2022-08-26T01:43:47.469Z,66.31
2022-08-26T01:46:16.082Z,67.01
2022-08-26T01:48:43.911Z,66.46
2022-08-26T01:51:12.122Z,66.64
2022-08-26T01:53:39.857Z,66.07
2022-08-26T01:56:09.686Z,65.78
2022-08-26T01:58:42.771Z,64.92
2022-08-26T02:01:10.485Z,65.01
2022-08-26T02:03:57.043Z,66.38
2022-08-26T02:06:24.389Z,66.74
2022-08-26T02:08:54.795Z,67.95
2022-08-26T02:11:21.364Z,68.10
2022-08-26T02:13:57.897Z,67.84
2022-08-26T02:16:27.129Z,66.35
2022-08-26T02:18:54.292Z,65.42
2022-08-26T02:21:21.768Z,67.36
2022-08-26T02:23:52.371Z,67.63
2022-08-26T02:26:23.922Z,67.94
2022-08-26T02:28:59.335Z,67.21
2022-08-26T02:31:25.919Z,67.86
2022-08-26T02:33:52.623Z,68.41
2022-08-26T02:36:23.939Z,67.88
2022-08-26T02:38:55.209Z,68.51
2022-08-26T02:41:23.058Z,67.49
2022-08-26T02:43:49.743Z,65.89
2022-08-26T02:46:27.701Z,68.02
2022-08-26T02:48:56.259Z,68.59
2022-08-26T02:51:22.799Z,69.01
2022-08-26T02:53:49.890Z,69.10
2022-08-26T02:56:17.594Z,68.42
2022-08-26T02:58:44.131Z,69.86
2022-08-26T03:01:21.599Z,70.21
2022-08-26T03:03:48.364Z,69.91
2022-08-26T03:06:16.380Z,69.43
2022-08-26T03:08:43.243Z,69.23
2022-08-26T03:11:10.909Z,69.86
2022-08-26T03:13:38.439Z,69.26
2022-08-26T03:16:05.271Z,69.54
2022-08-26T03:18:31.911Z,68.39
2022-08-26T03:20:59.118Z,67.63
2022-08-26T03:23:26.033Z,70.23
2022-08-26T03:25:53.725Z,71.01
2022-08-26T03:28:20.264Z,70.21
2022-08-26T03:30:47.482Z,69.66
2022-08-26T03:33:14.565Z,69.10
2022-08-26T03:35:43.454Z,69.54
2022-08-26T03:38:10.812Z,69.94
2022-08-26T03:40:37.493Z,70.44
2022-08-26T03:43:05.462Z,70.36
2022-08-26T03:45:32.856Z,71.35
2022-08-26T03:48:00.156Z,70.29
2022-08-26T03:50:27.016Z,70.61
2022-08-26T03:52:54.651Z,71.26
2022-08-26T03:55:24.441Z,73.14
2022-08-26T03:57:51.598Z,72.54
2022-08-26T04:00:18.381Z,71.58
2022-08-26T04:02:46.728Z,72.93
2022-08-26T04:05:14.511Z,72.24
2022-08-26T04:07:42.727Z,71.66
2022-08-26T04:10:11.612Z,72.87
2022-08-26T04:12:38.650Z,72.76
2022-08-26T04:15:11.051Z,73.62
2022-08-26T04:17:37.553Z,73.71
2022-08-26T04:20:06.226Z,73.01
2022-08-26T04:22:33.924Z,71.97
2022-08-26T04:25:00.393Z,72.93
2022-08-26T04:27:27.060Z,72.46
2022-08-26T04:29:55.427Z,72.75
2022-08-26T04:32:22.559Z,72.02
2022-08-26T04:34:48.996Z,72.72
2022-08-26T04:37:16.336Z,71.21
2022-08-26T04:39:44.524Z,71.12
2022-08-26T04:42:12.550Z,71.65
2022-08-26T04:44:39.370Z,71.19
2022-08-26T04:47:06.114Z,70.09
2022-08-26T04:49:35.252Z,70.39
2022-08-26T04:52:02.556Z,70.67
2022-08-26T04:54:29.007Z,71.78
2022-08-26T04:56:55.742Z,71.78
2022-08-26T04:59:22.706Z,72.35
2022-08-26T05:01:52.811Z,72.29
2022-08-26T05:04:20.596Z,71.52
2022-08-26T05:06:48.322Z,71.70
2022-08-26T05:09:15.515Z,71.32
2022-08-26T05:11:42.041Z,72.13
2022-08-26T05:14:08.620Z,71.76
2022-08-26T05:16:35.199Z,72.48
2022-08-26T05:19:03.456Z,71.71
2022-08-26T05:21:30.156Z,71.62
2022-08-26T05:23:57.180Z,71.87
2022-08-26T05:26:27.504Z,72.55
2022-08-26T05:28:55.275Z,71.51
2022-08-26T05:31:28.231Z,71.12
2022-08-26T05:33:57.510Z,71.26
2022-08-26T05:36:27.125Z,71.04
2022-08-26T05:38:54.394Z,70.77
2022-08-26T05:41:24.755Z,69.50
2022-08-26T05:43:52.233Z,68.86
2022-08-26T05:46:18.979Z,68.73
2022-08-26T05:48:45.514Z,67.81
2022-08-26T05:51:14.121Z,67.64
2022-08-26T05:53:43.871Z,65.97
2022-08-26T05:56:24.656Z,65.63
2022-08-26T05:58:51.083Z,64.27
2022-08-26T06:01:20.258Z,63.95
2022-08-26T06:03:54.844Z,63.10
2022-08-26T06:06:29.959Z,63.41
2022-08-26T06:08:59.182Z,64.39
2022-08-26T06:11:27.552Z,63.19
2022-08-26T06:14:03.974Z,62.61
2022-08-26T06:16:31.974Z,62.75
2022-08-26T06:18:58.450Z,62.98
2022-08-26T06:21:30.133Z,62.79
2022-08-26T06:24:18.789Z,62.71
2022-08-26T06:26:50.931Z,62.65
2022-08-26T06:29:24.420Z,62.17
2022-08-26T06:31:52.006Z,61.72
2022-08-26T06:34:18.598Z,61.35
2022-08-26T06:36:45.309Z,60.08
2022-08-26T06:39:14.276Z,60.08
2022-08-26T06:41:44.883Z,59.90
2022-08-26T06:44:13.586Z,58.26
2022-08-26T06:46:41.398Z,58.91
2022-08-26T06:49:08.049Z,57.58
2022-08-26T06:51:37.300Z,56.14
2022-08-26T06:54:05.034Z,57.07
2022-08-26T06:56:39.816Z,56.50
2022-08-26T06:59:07.787Z,55.33
2022-08-26T07:01:38.061Z,55.68
2022-08-26T07:04:10.373Z,56.63
2022-08-26T07:06:40.487Z,55.62
2022-08-26T07:09:09.969Z,57.08
2022-08-26T07:11:37.940Z,54.30
2022-08-26T07:14:04.984Z,54.95
2022-08-26T07:16:31.553Z,53.66
2022-08-26T07:18:59.662Z,52.94
2022-08-26T07:21:27.837Z,52.59
2022-08-26T07:24:00.030Z,52.75
2022-08-26T07:26:29.469Z,52.50
2022-08-26T07:28:57.520Z,52.90
2022-08-26T07:31:27.801Z,51.15
2022-08-26T07:33:56.817Z,50.35
2022-08-26T07:36:24.467Z,48.79
2022-08-26T07:38:51.945Z,48.94
2022-08-26T07:41:20.441Z,49.67
2022-08-26T07:43:46.959Z,48.63
2022-08-26T07:46:18.436Z,48.56
2022-08-26T07:48:48.786Z,49.09
2022-08-26T07:51:16.731Z,47.92
2022-08-26T07:53:43.947Z,48.67
2022-08-26T07:56:14.651Z,49.11
2022-08-26T07:58:41.406Z,48.91
2022-08-26T08:01:09.185Z,49.35
2022-08-26T08:03:35.766Z,49.32
2022-08-26T08:06:04.546Z,48.93
2022-08-26T08:08:32.955Z,49.26
2022-08-26T08:10:59.690Z,49.59
2022-08-26T08:13:26.358Z,49.47
2022-08-26T08:15:52.872Z,49.22
2022-08-26T08:18:20.579Z,50.98
2022-08-26T08:20:59.238Z,51.37
2022-08-26T08:23:32.053Z,50.45
2022-08-26T08:26:03.091Z,50.24
2022-08-26T08:28:29.802Z,50.57
2022-08-26T08:30:56.423Z,50.91
2022-08-26T08:33:23.185Z,50.74
2022-08-26T08:35:49.662Z,51.29
2022-08-26T08:38:16.697Z,50.59
2022-08-26T08:40:45.492Z,51.27
2022-08-26T08:43:18.429Z,51.32
2022-08-26T08:45:49.559Z,50.42
2022-08-26T08:48:20.649Z,50.32
2022-08-26T08:50:56.543Z,50.47
2022-08-26T08:53:41.596Z,50.17
2022-08-26T08:56:45.910Z,49.83
2022-08-26T08:59:25.470Z,50.17
2022-08-26T09:01:52.586Z,50.07
2022-08-26T09:05:02.157Z,49.07
2022-08-26T09:07:41.062Z,49.11
2022-08-26T09:10:19.875Z,48.87
2022-08-26T09:12:47.659Z,48.36
2022-08-26T09:15:20.978Z,48.19
2022-08-26T09:17:59.868Z,47.96
2022-08-26T09:21:00.453Z,47.25
2022-08-26T09:23:27.121Z,47.10
2022-08-26T09:26:03.354Z,47.33
2022-08-26T09:28:31.545Z,47.57
2022-08-26T09:31:01.405Z,47.38
2022-08-26T09:33:30.768Z,47.10
2022-08-26T09:36:24.710Z,46.76
2022-08-26T09:38:52.590Z,47.04
2022-08-26T09:41:31.756Z,47.42
2022-08-26T09:44:04.436Z,47.34
2022-08-26T09:46:31.737Z,47.01
2022-08-26T09:49:47.308Z,47.44
2022-08-26T09:52:22.382Z,46.98
2022-08-26T09:55:09.570Z,47.49
2022-08-26T09:57:45.641Z,47.47
2022-08-26T10:00:55.452Z,47.71
2022-08-26T10:03:33.582Z,47.08
2022-08-26T10:06:06.751Z,47.25
2022-08-26T10:08:37.478Z,47.83
2022-08-26T10:11:12.077Z,47.31
2022-08-26T10:13:42.228Z,47.46
2022-08-26T10:16:22.377Z,47.49
2022-08-26T10:18:59.897Z,47.08
2022-08-26T10:21:30.218Z,48.18
2022-08-26T10:23:59.204Z,47.88
2022-08-26T10:26:49.014Z,47.65
2022-08-26T10:29:26.203Z,48.46
2022-08-26T10:32:03.707Z,47.71
2022-08-26T10:34:32.266Z,47.23
2022-08-26T10:37:15.066Z,47.67
2022-08-26T10:40:04.621Z,48.44
2022-08-26T10:42:45.650Z,48.01
2022-08-26T10:45:15.124Z,47.93
2022-08-26T10:47:48.905Z,47.36
2022-08-26T10:50:18.184Z,47.52
2022-08-26T10:52:51.274Z,47.68
2022-08-26T10:55:34.982Z,48.34
2022-08-26T10:58:26.583Z,49.17
2022-08-26T11:01:31.535Z,48.41
2022-08-26T11:03:58.656Z,49.67
2022-08-26T11:06:28.925Z,48.82
2022-08-26T11:08:57.427Z,49.35
2022-08-26T11:11:42.110Z,50.04
2022-08-26T11:14:29.113Z,49.36
2022-08-26T11:16:57.430Z,50.33
2022-08-26T11:19:45.336Z,49.92
2022-08-26T11:22:38.117Z,49.96
2022-08-26T11:25:15.770Z,50.02
2022-08-26T11:27:54.285Z,50.31
2022-08-26T11:30:20.674Z,50.86
2022-08-26T11:32:54.952Z,50.80
2022-08-26T11:35:21.734Z,50.51
2022-08-26T11:38:02.057Z,51.26
2022-08-26T11:40:33.809Z,52.02
2022-08-26T11:43:05.666Z,50.56
2022-08-26T11:45:37.956Z,51.20
2022-08-26T11:48:22.575Z,50.49
2022-08-26T11:50:54.443Z,51.91
2022-08-26T11:53:22.959Z,51.31
2022-08-26T11:55:50.549Z,51.77
2022-08-26T11:58:17.433Z,52.43
2022-08-26T12:00:47.624Z,51.74
2022-08-26T12:03:20.382Z,51.25
2022-08-26T12:05:52.032Z,51.85
2022-08-26T12:08:22.058Z,51.55
2022-08-26T12:10:49.025Z,51.53
2022-08-26T12:13:23.993Z,51.36
2022-08-26T12:15:55.737Z,51.88
2022-08-26T12:18:29.015Z,51.57
2022-08-26T12:20:59.231Z,52.77
2022-08-26T12:23:46.819Z,52.28
2022-08-26T12:26:24.968Z,52.54
2022-08-26T12:29:02.305Z,52.05
2022-08-26T12:31:43.663Z,52.14
2022-08-26T12:34:17.433Z,52.74
2022-08-26T12:36:46.629Z,52.52
2022-08-26T12:39:16.320Z,52.74
2022-08-26T12:41:49.365Z,52.51
2022-08-26T12:44:53.186Z,52.97
2022-08-26T12:47:42.365Z,52.53
2022-08-26T12:50:12.141Z,53.00
2022-08-26T12:52:56.821Z,52.46
2022-08-26T12:55:24.676Z,52.31
2022-08-26T12:58:29.825Z,52.18
2022-08-26T13:01:06.332Z,52.24
2022-08-26T13:03:40.189Z,52.21
2022-08-26T13:06:29.577Z,53.20
2022-08-26T13:09:00.551Z,52.44
2022-08-26T13:11:52.819Z,52.59
2022-08-26T13:14:24.167Z,52.34
2022-08-26T13:16:51.615Z,52.87
2022-08-26T13:19:21.851Z,53.34
2022-08-26T13:21:53.766Z,52.80
2022-08-26T13:24:40.600Z,53.47
2022-08-26T13:27:09.954Z,53.70
2022-08-26T13:29:36.529Z,53.14
2022-08-26T17:28:16.096Z,59.67
2022-08-26T17:30:42.801Z,59.90
2022-08-26T17:33:10.647Z,60.11
2022-08-26T17:35:50.032Z,59.55
2022-08-26T17:38:16.634Z,59.40
2022-08-26T17:40:43.123Z,59.42
2022-08-26T17:43:12.312Z,59.89
2022-08-26T17:45:43.517Z,59.88
2022-08-26T17:48:11.277Z,59.76
2022-08-26T17:50:42.370Z,59.97
2022-08-26T17:53:18.441Z,59.61
2022-08-26T17:55:45.859Z,59.80
2022-08-26T17:58:14.812Z,60.11
2022-08-26T18:00:49.401Z,59.68
2022-08-26T18:03:19.155Z,59.91
2022-08-26T18:05:51.045Z,60.51
2022-08-26T18:08:17.711Z,60.83
2022-08-26T18:10:44.910Z,60.82
2022-08-26T18:13:12.919Z,60.16
2022-08-26T18:15:40.055Z,60.39
2022-08-26T18:18:15.571Z,61.35
2022-08-26T18:20:44.159Z,60.78
2022-08-26T18:23:14.476Z,60.84
2022-08-26T18:25:43.774Z,62.87
2022-08-26T18:28:13.211Z,63.22
2022-08-26T18:30:42.539Z,65.20
2022-08-26T18:33:14.622Z,65.16
2022-08-26T18:35:45.041Z,65.68
2022-08-26T18:38:15.499Z,66.50
2022-08-26T20:30:04.844Z,75.40
2022-08-26T20:32:39.524Z,76.79
2022-08-26T20:35:40.534Z,75.76
2022-08-26T20:38:28.645Z,75.72
2022-08-26T20:41:00.484Z,76.30
2022-08-26T20:43:49.038Z,76.63
2022-08-26T20:58:13.291Z,76.51
2022-08-26T22:00:41.282Z,79.49
2022-08-26T22:03:57.087Z,80.37
2022-08-26T22:10:14.054Z,83.52
2022-08-26T22:20:25.981Z,86.67
2022-08-26T22:27:13.902Z,83.89
2022-08-26T22:33:28.019Z,82.62
2022-08-26T22:39:39.059Z,83.93
